createdAt,value
2022-12-18T00:01:27.549Z,15.15
2022-12-18T00:03:57.514Z,14.68
2022-12-18T00:06:27.932Z,15.68
2022-12-18T00:08:58.883Z,16.27
2022-12-18T00:11:30.218Z,14.88
2022-12-18T00:14:00.939Z,15.80
2022-12-18T00:16:31.278Z,15.27
2022-12-18T00:19:00.913Z,15.20
2022-12-18T00:21:30.678Z,15.63
2022-12-18T00:24:00.342Z,15.75
2022-12-18T00:26:31.247Z,16.50
2022-12-18T00:29:05.319Z,15.20
2022-12-18T00:31:34.611Z,14.10
2022-12-18T00:34:03.766Z,15.32
2022-12-18T00:36:35.667Z,15.55
2022-12-18T00:39:06.292Z,15.48
2022-12-18T00:41:34.999Z,15.02
2022-12-18T00:44:04.654Z,14.57
2022-12-18T00:46:33.628Z,15.43
2022-12-18T00:49:01.906Z,14.82
2022-12-18T00:51:30.261Z,15.25
2022-12-18T00:53:58.672Z,15.98
2022-12-18T00:58:55.627Z,14.90
2022-12-18T01:01:24.316Z,15.18
2022-12-18T01:03:52.718Z,15.10
2022-12-18T01:06:21.913Z,16.15
2022-12-18T01:08:52.327Z,15.95
2022-12-18T01:11:22.632Z,15.65
2022-12-18T01:13:51.212Z,18.10
2022-12-18T01:16:19.749Z,15.07
2022-12-18T01:18:48.453Z,17.15
2022-12-18T01:21:18.170Z,16.83
2022-12-18T01:23:46.696Z,16.83
2022-12-18T01:26:18.733Z,15.45
2022-12-18T01:28:46.927Z,16.67
2022-12-18T01:31:24.076Z,16.35
2022-12-18T01:33:53.501Z,15.93
2022-12-18T01:36:27.359Z,16.33
2022-12-18T01:38:56.856Z,16.50
2022-12-18T01:41:31.724Z,16.25
2022-12-18T01:44:00.462Z,16.92
2022-12-18T01:46:29.240Z,16.88
2022-12-18T01:49:02.997Z,16.88
2022-12-18T01:51:32.330Z,17.70
2022-12-18T01:54:01.535Z,17.17
2022-12-18T01:56:29.899Z,18.83
2022-12-18T01:59:06.230Z,18.95
2022-12-18T02:01:35.094Z,18.30
2022-12-18T02:06:57.095Z,19.08
2022-12-18T02:09:45.645Z,18.50
2022-12-18T02:12:21.296Z,18.67
2022-12-18T02:14:58.389Z,19.45
2022-12-18T02:17:40.044Z,18.70
2022-12-18T02:20:36.768Z,17.95
2022-12-18T02:23:46.092Z,19.05
2022-12-18T02:26:17.314Z,19.67
2022-12-18T02:29:06.719Z,19.02
2022-12-18T02:31:57.945Z,20.00
2022-12-18T02:34:38.286Z,20.80
2022-12-18T02:37:12.656Z,19.80
2022-12-18T02:39:44.569Z,19.17
2022-12-18T02:42:15.394Z,20.08
2022-12-18T02:44:51.746Z,19.77
2022-12-18T02:47:32.371Z,22.73
2022-12-18T02:50:13.081Z,21.13
2022-12-18T02:53:23.873Z,21.63
2022-12-18T02:55:58.012Z,20.83
2022-12-18T02:58:54.845Z,20.38
2022-12-18T03:01:50.488Z,20.90
2022-12-18T03:04:20.647Z,21.50
2022-12-18T03:06:54.967Z,21.02
2022-12-18T03:09:29.567Z,21.70
2022-12-18T03:12:05.329Z,21.00
2022-12-18T03:14:38.983Z,20.02
2022-12-18T03:17:15.276Z,19.83
2022-12-18T03:19:45.743Z,21.30
2022-12-18T03:22:15.055Z,21.80
2022-12-18T03:24:51.394Z,20.80
2022-12-18T03:27:25.572Z,21.70
2022-12-18T03:30:07.764Z,20.73
2022-12-18T03:33:09.620Z,20.35
2022-12-18T03:35:44.245Z,21.65
2022-12-18T03:38:14.649Z,20.95
2022-12-18T03:41:02.235Z,21.40
2022-12-18T03:43:45.510Z,20.67
2022-12-18T03:46:48.489Z,21.38
2022-12-18T03:49:26.859Z,19.60
2022-12-18T03:52:11.674Z,20.33
2022-12-18T03:54:44.590Z,19.77
2022-12-18T03:57:21.156Z,20.85
2022-12-18T03:59:57.865Z,19.75
2022-12-18T04:02:33.486Z,20.88
2022-12-18T04:05:06.114Z,20.70
2022-12-18T04:07:36.340Z,19.67
2022-12-18T04:10:08.526Z,20.55
2022-12-18T04:12:40.421Z,20.48
2022-12-18T04:15:14.188Z,20.33
2022-12-18T04:17:50.570Z,19.73
2022-12-18T04:20:22.395Z,20.88
2022-12-18T04:22:50.869Z,20.25
2022-12-18T04:25:21.103Z,20.42
2022-12-18T04:28:03.427Z,19.85
2022-12-18T04:30:32.057Z,18.85
2022-12-18T04:33:00.785Z,20.35
2022-12-18T04:35:31.326Z,20.35
2022-12-18T04:38:00.770Z,18.75
2022-12-18T04:40:28.990Z,19.75
2022-12-18T04:42:57.443Z,18.88
2022-12-18T04:45:25.700Z,17.92
2022-12-18T04:47:53.924Z,19.42
2022-12-18T04:50:22.136Z,18.90
2022-12-18T04:52:50.406Z,19.08
2022-12-18T04:55:18.730Z,18.80
2022-12-18T04:57:46.941Z,17.38
2022-12-18T05:00:15.652Z,18.27
2022-12-18T05:02:44.215Z,18.35
2022-12-18T05:07:40.539Z,18.33
2022-12-18T05:10:10.522Z,17.92
2022-12-18T05:12:39.168Z,16.88
2022-12-18T05:15:07.966Z,17.08
2022-12-18T05:17:36.331Z,18.55
2022-12-18T05:20:04.900Z,17.42
2022-12-18T05:22:33.230Z,18.25
2022-12-18T05:25:01.602Z,18.40
2022-12-18T05:27:29.890Z,19.48
2022-12-18T05:29:58.219Z,16.73
2022-12-18T05:32:26.777Z,19.30
2022-12-18T05:34:54.989Z,17.45
2022-12-18T05:37:23.395Z,16.80
2022-12-18T05:39:51.935Z,17.95
2022-12-18T05:42:20.251Z,17.48
2022-12-18T05:44:48.523Z,17.55
2022-12-18T05:47:16.858Z,17.40
2022-12-18T05:49:45.269Z,17.67
2022-12-18T05:52:13.607Z,17.65
2022-12-18T05:54:41.966Z,16.10
2022-12-18T05:57:10.177Z,16.92
2022-12-18T05:59:38.779Z,16.83
2022-12-18T06:02:07.249Z,16.48
2022-12-18T06:04:35.863Z,16.73
2022-12-18T06:07:04.132Z,17.05
2022-12-18T06:09:32.412Z,16.10
2022-12-18T06:12:00.852Z,15.57
2022-12-18T06:14:29.256Z,17.08
2022-12-18T06:16:57.401Z,16.10
2022-12-18T06:19:25.909Z,16.55
2022-12-18T06:24:22.411Z,16.67
2022-12-18T06:26:50.606Z,16.52
2022-12-18T06:29:18.974Z,16.30
2022-12-18T06:31:47.300Z,16.15
2022-12-18T06:34:16.049Z,15.20
2022-12-18T06:39:12.469Z,16.77
2022-12-18T06:41:40.855Z,15.68
2022-12-18T06:44:09.170Z,15.70
2022-12-18T06:46:39.350Z,15.40
2022-12-18T06:49:07.929Z,15.35
2022-12-18T06:51:36.465Z,15.55
2022-12-18T06:54:05.077Z,16.42
2022-12-18T06:56:33.358Z,15.80
2022-12-18T06:59:02.268Z,14.98
2022-12-18T07:01:30.954Z,15.00
2022-12-18T07:03:59.860Z,15.82
2022-12-18T07:06:28.535Z,15.82
2022-12-18T07:08:57.174Z,15.60
2022-12-18T07:11:26.262Z,17.08
2022-12-18T07:13:54.699Z,16.38
2022-12-18T07:16:25.628Z,17.50
2022-12-18T07:18:56.631Z,16.95
2022-12-18T07:21:25.913Z,17.30
2022-12-18T07:23:54.303Z,15.93
2022-12-18T07:26:23.760Z,16.98
2022-12-18T07:28:52.585Z,16.80
2022-12-18T07:31:24.144Z,15.48
2022-12-18T07:33:53.356Z,16.90
2022-12-18T07:36:22.111Z,16.05
2022-12-18T07:41:19.437Z,14.95
2022-12-18T07:43:48.681Z,16.42
2022-12-18T07:46:18.044Z,15.50
2022-12-18T07:48:50.189Z,15.15
2022-12-18T07:51:19.929Z,16.20
2022-12-18T07:53:52.013Z,15.25
2022-12-18T07:56:30.834Z,16.02
2022-12-18T07:59:00.784Z,14.70
2022-12-18T08:01:32.426Z,15.90
2022-12-18T08:06:29.047Z,15.10
2022-12-18T08:08:58.198Z,15.98
2022-12-18T08:11:28.580Z,14.55
2022-12-18T08:13:57.811Z,14.68
2022-12-18T08:16:26.328Z,16.77
2022-12-18T08:18:55.774Z,15.52
2022-12-18T08:21:28.123Z,15.38
2022-12-18T08:23:58.503Z,15.00
2022-12-18T08:26:29.813Z,14.45
2022-12-18T08:29:00.893Z,14.45
2022-12-18T08:31:31.186Z,15.45
2022-12-18T08:34:00.230Z,14.35
2022-12-18T08:36:28.669Z,15.63
2022-12-18T08:38:58.379Z,15.27
2022-12-18T08:41:27.370Z,15.13
2022-12-18T08:43:55.716Z,14.13
2022-12-18T08:46:26.367Z,14.77
2022-12-18T08:48:55.458Z,14.95
2022-12-18T08:51:23.801Z,15.10
2022-12-18T08:53:52.302Z,14.90
2022-12-18T08:56:20.631Z,15.90
2022-12-18T08:58:48.905Z,14.38
2022-12-18T09:01:17.906Z,14.48
2022-12-18T09:03:46.284Z,14.82
2022-12-18T09:06:19.178Z,13.32
2022-12-18T09:08:47.765Z,14.55
2022-12-18T09:11:26.167Z,13.45
2022-12-18T09:13:55.500Z,15.13
2022-12-18T09:16:31.692Z,14.73
2022-12-18T09:19:01.968Z,14.52
2022-12-18T09:21:37.208Z,14.13
2022-12-18T09:24:08.728Z,14.85
2022-12-18T09:26:38.203Z,13.00
2022-12-18T09:29:07.904Z,14.18
2022-12-18T09:31:36.598Z,14.75
2022-12-18T09:36:32.921Z,14.30
2022-12-18T09:39:05.131Z,14.02
2022-12-18T09:41:39.412Z,13.57
2022-12-18T09:44:29.956Z,13.82
2022-12-18T09:47:19.583Z,14.80
2022-12-18T09:49:51.176Z,14.27
2022-12-18T09:52:32.328Z,13.90
2022-12-18T09:55:09.931Z,13.13
2022-12-18T09:57:46.758Z,13.52
2022-12-18T10:00:33.264Z,14.30
2022-12-18T10:03:10.602Z,14.27
2022-12-18T10:06:08.541Z,13.82
2022-12-18T10:08:40.226Z,14.32
2022-12-18T10:11:24.115Z,13.20
2022-12-18T10:14:00.759Z,13.15
2022-12-18T10:17:05.304Z,13.73
2022-12-18T10:20:01.457Z,14.30
2022-12-18T10:22:46.128Z,13.00
2022-12-18T10:25:25.239Z,13.50
2022-12-18T10:27:58.780Z,13.15
2022-12-18T10:30:28.285Z,12.90
2022-12-18T10:33:02.001Z,12.80
2022-12-18T10:35:31.656Z,13.48
2022-12-18T10:38:04.775Z,14.15
2022-12-18T10:40:34.167Z,12.30
2022-12-18T10:43:38.937Z,13.05
2022-12-18T10:46:10.407Z,12.60
2022-12-18T10:48:48.908Z,12.52
2022-12-18T10:51:25.265Z,12.05
2022-12-18T10:54:16.509Z,12.70
2022-12-18T10:56:46.978Z,12.85
2022-12-18T11:01:56.835Z,12.57
2022-12-18T11:04:27.790Z,12.93
2022-12-18T11:07:05.257Z,11.40
2022-12-18T11:09:36.480Z,12.55
2022-12-18T11:12:25.046Z,11.50
2022-12-18T11:17:36.945Z,11.55
2022-12-18T11:20:29.775Z,12.27
2022-12-18T11:23:01.509Z,11.88
2022-12-18T11:25:34.697Z,13.18
2022-12-18T11:28:27.444Z,12.27
2022-12-18T11:31:34.532Z,11.00
2022-12-18T11:34:29.269Z,12.65
2022-12-18T11:37:01.716Z,12.63
2022-12-18T11:39:53.234Z,12.63
2022-12-18T11:42:56.746Z,12.00
2022-12-18T11:45:37.615Z,12.25
2022-12-18T11:48:15.369Z,12.23
2022-12-18T11:51:04.369Z,11.80
2022-12-18T11:53:32.863Z,10.82
2022-12-18T11:56:32.005Z,11.95
2022-12-18T11:59:09.752Z,12.10
2022-12-18T12:01:47.711Z,11.43
2022-12-18T12:04:37.694Z,10.73
2022-12-18T12:07:16.514Z,11.93
2022-12-18T12:10:05.223Z,11.95
2022-12-18T12:13:07.106Z,11.18
2022-12-18T12:15:55.442Z,11.98
2022-12-18T12:18:47.456Z,12.57
2022-12-18T12:21:40.063Z,12.20
2022-12-18T12:24:23.728Z,12.98
2022-12-18T12:27:10.853Z,12.02
2022-12-18T12:30:20.302Z,12.38
2022-12-18T12:32:55.547Z,12.48
2022-12-18T12:35:53.617Z,12.20
2022-12-18T12:38:24.891Z,14.30
2022-12-18T12:41:04.917Z,12.85
2022-12-18T12:43:50.795Z,13.32
2022-12-18T12:46:23.931Z,12.25
2022-12-18T12:48:57.130Z,12.43
2022-12-18T12:51:36.360Z,13.93
2022-12-18T12:54:15.420Z,12.63
2022-12-18T12:56:51.786Z,12.52
2022-12-18T12:59:43.766Z,12.98
2022-12-18T13:02:21.411Z,13.18
2022-12-18T13:05:21.300Z,12.32
2022-12-18T13:07:53.194Z,14.00
2022-12-18T13:10:33.090Z,13.27
2022-12-18T13:13:12.822Z,12.13
2022-12-18T13:15:42.617Z,12.77
2022-12-18T13:18:11.481Z,11.98
2022-12-18T13:20:50.758Z,12.95
2022-12-18T13:23:29.763Z,11.98
2022-12-18T13:26:24.787Z,12.02
2022-12-18T13:34:26.221Z,12.35
2022-12-18T13:36:58.059Z,13.07
2022-12-18T13:39:35.293Z,11.98
2022-12-18T13:42:07.304Z,12.48
2022-12-18T13:44:41.596Z,12.82
2022-12-18T13:47:34.622Z,12.82
2022-12-18T13:50:12.033Z,11.45
2022-12-18T13:52:41.724Z,11.10
2022-12-18T13:55:18.526Z,12.95
2022-12-18T13:57:47.286Z,12.45
2022-12-18T14:00:19.223Z,14.05
2022-12-18T14:02:48.325Z,13.75
2022-12-18T14:05:26.413Z,11.82
2022-12-18T14:07:56.765Z,12.05
2022-12-18T14:10:48.147Z,11.57
2022-12-18T14:13:30.959Z,13.00
2022-12-18T14:16:01.758Z,11.00
2022-12-18T14:19:01.944Z,11.70
2022-12-18T14:21:35.716Z,11.68
2022-12-18T14:24:22.601Z,11.90
2022-12-18T14:26:52.327Z,12.02
2022-12-18T14:29:23.025Z,12.10
2022-12-18T14:32:17.834Z,11.20
2022-12-18T14:34:51.205Z,11.13
2022-12-18T14:37:23.650Z,12.18
2022-12-18T14:40:15.163Z,12.18
2022-12-18T14:42:44.116Z,12.32
2022-12-18T14:45:42.282Z,10.63
2022-12-18T14:48:23.518Z,10.73
2022-12-18T14:51:08.017Z,10.82
2022-12-18T14:53:41.025Z,11.57
2022-12-18T14:56:24.085Z,10.55
2022-12-18T14:59:01.522Z,11.35
2022-12-18T15:01:31.833Z,11.82
2022-12-18T15:04:01.638Z,11.70
2022-12-18T15:06:39.045Z,10.90
2022-12-18T15:09:26.484Z,12.02
2022-12-18T15:12:00.543Z,11.70
2022-12-18T15:14:39.529Z,11.18
2022-12-18T15:17:21.180Z,11.77
2022-12-18T15:19:54.252Z,11.20
2022-12-18T15:22:31.362Z,11.07
2022-12-18T15:25:00.959Z,11.65
2022-12-18T15:27:37.674Z,9.90
2022-12-18T15:30:11.885Z,10.60
2022-12-18T15:32:41.634Z,10.45
2022-12-18T15:35:09.911Z,11.15
2022-12-18T15:37:41.034Z,11.73
2022-12-18T15:40:14.927Z,10.90
2022-12-18T15:42:47.048Z,10.95
2022-12-18T15:45:16.231Z,12.05
2022-12-18T15:47:46.240Z,10.90
2022-12-18T15:50:16.346Z,10.32
2022-12-18T15:52:47.320Z,10.27
2022-12-18T15:55:21.391Z,10.00
2022-12-18T15:57:49.685Z,11.50
2022-12-18T16:00:18.110Z,9.68
2022-12-18T16:02:46.812Z,10.65
2022-12-18T16:07:47.711Z,10.00
2022-12-18T16:12:44.659Z,9.75
2022-12-18T16:15:18.494Z,11.13
2022-12-18T16:17:50.980Z,11.00
2022-12-18T16:20:23.814Z,10.15
2022-12-18T16:22:52.299Z,9.48
2022-12-18T16:25:26.197Z,10.07
2022-12-18T16:27:55.832Z,10.60
2022-12-18T16:30:32.337Z,10.18
2022-12-18T16:33:07.598Z,11.02
2022-12-18T16:35:36.479Z,9.82
2022-12-18T16:38:05.303Z,10.32
2022-12-18T16:40:34.282Z,10.25
2022-12-18T16:43:02.736Z,9.55
2022-12-18T16:45:31.193Z,9.45
2022-12-18T16:47:59.576Z,10.05
2022-12-18T16:50:28.051Z,10.43
2022-12-18T16:52:56.312Z,9.75
2022-12-18T16:55:24.708Z,10.95
2022-12-18T16:57:53.533Z,10.13
2022-12-18T17:00:22.519Z,9.80
2022-12-18T17:02:51.270Z,10.38
2022-12-18T17:05:19.880Z,9.18
2022-12-18T17:07:48.220Z,9.25
2022-12-18T17:10:19.127Z,9.93
2022-12-18T17:12:47.528Z,9.82
2022-12-18T17:15:16.033Z,9.63
2022-12-18T17:17:44.945Z,9.63
2022-12-18T17:20:13.483Z,10.55
2022-12-18T17:22:41.766Z,10.32
2022-12-18T17:25:10.464Z,10.35
2022-12-18T17:27:39.080Z,11.63
2022-12-18T17:30:08.066Z,11.05
2022-12-18T17:32:36.349Z,11.85
2022-12-18T17:35:07.300Z,12.55
2022-12-18T17:37:36.704Z,12.73
2022-12-18T17:40:05.517Z,13.55
2022-12-18T17:42:33.966Z,12.27
2022-12-18T17:45:02.410Z,12.13
2022-12-18T17:47:30.578Z,11.18
2022-12-18T17:49:59.044Z,12.73
2022-12-18T17:52:27.208Z,12.90
2022-12-18T17:54:55.480Z,12.55
2022-12-18T17:57:23.896Z,13.77
2022-12-18T17:59:52.226Z,13.45
2022-12-18T18:02:21.731Z,13.80
2022-12-18T18:04:50.049Z,13.07
2022-12-18T18:07:18.442Z,12.07
2022-12-18T18:09:46.833Z,13.90
2022-12-18T18:12:15.340Z,12.38
2022-12-18T18:14:43.651Z,12.25
2022-12-18T18:17:12.566Z,12.48
2022-12-18T18:19:41.026Z,13.48
2022-12-18T18:22:11.134Z,12.55
2022-12-18T18:24:39.575Z,12.02
2022-12-18T18:27:07.882Z,12.27
2022-12-18T18:29:36.646Z,12.20
2022-12-18T18:32:05.444Z,13.20
2022-12-18T18:34:34.229Z,12.90
2022-12-18T18:37:03.155Z,13.27
2022-12-18T18:39:31.525Z,12.60
2022-12-18T18:42:01.067Z,12.68
2022-12-18T18:44:30.574Z,11.32
2022-12-18T18:46:59.739Z,11.93
2022-12-18T18:49:29.649Z,12.77
2022-12-18T18:51:58.585Z,12.38
2022-12-18T18:54:27.324Z,13.38
2022-12-18T18:59:43.848Z,12.52
2022-12-18T19:02:16.411Z,13.45
2022-12-18T19:04:47.001Z,13.32
2022-12-18T19:07:20.915Z,13.00
2022-12-18T19:10:04.135Z,13.45
2022-12-18T19:12:34.153Z,13.10
2022-12-18T19:15:02.686Z,12.40
2022-12-18T19:17:31.542Z,12.95
2022-12-18T19:20:00.305Z,12.48
2022-12-18T19:22:28.694Z,11.93
2022-12-18T19:24:57.192Z,13.07
2022-12-18T19:27:25.776Z,12.90
2022-12-18T19:29:54.175Z,12.48
2022-12-18T19:32:22.655Z,12.60
2022-12-18T19:34:53.545Z,12.30
2022-12-18T19:37:22.255Z,12.10
2022-12-18T19:39:50.599Z,13.13
2022-12-18T19:42:24.904Z,11.85
2022-12-18T19:44:54.783Z,12.00
2022-12-18T19:47:22.982Z,12.23
2022-12-18T19:49:51.306Z,12.63
2022-12-18T19:52:19.774Z,13.68
2022-12-18T19:54:48.363Z,12.55
2022-12-18T19:57:16.939Z,13.00
2022-12-18T19:59:45.390Z,13.88
2022-12-18T20:02:16.925Z,13.27
2022-12-18T20:04:45.578Z,13.63
2022-12-18T20:07:13.888Z,13.63
2022-12-18T20:09:42.346Z,15.18
2022-12-18T20:12:10.957Z,14.80
2022-12-18T20:17:07.588Z,15.75
2022-12-18T20:19:36.692Z,15.75
2022-12-18T20:22:05.294Z,14.50
2022-12-18T20:24:33.866Z,16.77
2022-12-18T20:27:02.351Z,15.93
2022-12-18T20:29:30.629Z,18.38
2022-12-18T20:31:59.099Z,17.73
2022-12-18T20:34:27.607Z,17.00
2022-12-18T20:36:56.938Z,18.23
2022-12-18T20:39:25.821Z,17.45
2022-12-18T20:41:54.619Z,18.52
2022-12-18T20:44:24.124Z,17.45
2022-12-18T20:46:55.880Z,17.92
2022-12-18T20:49:26.280Z,17.50
2022-12-18T20:51:56.849Z,18.45
2022-12-18T20:54:27.727Z,19.00
2022-12-18T20:56:57.081Z,19.25
2022-12-18T20:59:26.078Z,18.83
2022-12-18T21:01:57.160Z,18.33
2022-12-18T21:04:26.092Z,18.30
2022-12-18T21:06:58.022Z,18.45
2022-12-18T21:09:30.373Z,19.08
2022-12-18T21:12:07.657Z,18.63
2022-12-18T21:14:37.241Z,19.23
2022-12-18T21:17:05.517Z,18.27
2022-12-18T21:19:33.927Z,17.30
2022-12-18T21:22:02.671Z,17.75
2022-12-18T21:24:32.764Z,19.95
2022-12-18T21:27:01.616Z,18.20
2022-12-18T21:29:30.004Z,18.50
2022-12-18T21:31:58.477Z,18.00
2022-12-18T21:34:29.378Z,17.48
2022-12-18T21:36:59.776Z,18.17
2022-12-18T21:39:29.241Z,17.58
2022-12-18T21:41:58.155Z,18.90
2022-12-18T21:44:26.504Z,18.38
2022-12-18T21:46:58.335Z,18.23
2022-12-18T21:49:32.511Z,18.50
2022-12-18T21:52:01.761Z,17.52
2022-12-18T21:54:30.602Z,16.20
2022-12-18T21:56:59.967Z,17.65
2022-12-18T21:59:39.647Z,17.33
2022-12-18T22:02:20.618Z,17.02
2022-12-18T22:04:49.536Z,17.33
2022-12-18T22:07:18.123Z,17.02
2022-12-18T22:09:46.719Z,17.75
2022-12-18T22:12:17.950Z,16.25
2022-12-18T22:14:46.275Z,16.52
2022-12-18T22:17:14.614Z,16.00
2022-12-18T22:19:44.099Z,16.27
2022-12-18T22:22:12.672Z,16.85
2022-12-18T22:24:41.166Z,16.00
2022-12-18T22:27:10.626Z,17.75
2022-12-18T22:29:39.212Z,15.90
2022-12-18T22:32:09.252Z,16.38
2022-12-18T22:34:39.669Z,15.88
2022-12-18T22:37:07.940Z,14.45
2022-12-18T22:39:36.165Z,17.17
2022-12-18T22:44:33.045Z,14.73
2022-12-18T22:47:07.033Z,15.32
2022-12-18T22:49:36.367Z,16.77
2022-12-18T22:52:05.658Z,15.98
2022-12-18T22:54:33.964Z,15.82
2022-12-18T22:57:02.335Z,15.45
2022-12-18T22:59:31.751Z,15.63
2022-12-18T23:02:01.052Z,15.18
2022-12-18T23:04:36.059Z,15.25
2022-12-18T23:07:06.379Z,14.30
2022-12-18T23:09:35.353Z,14.75
2022-12-18T23:14:32.162Z,13.75
2022-12-18T23:17:00.307Z,14.45
2022-12-18T23:19:28.874Z,14.20
2022-12-18T23:21:57.123Z,15.40
2022-12-18T23:24:26.975Z,14.95
2022-12-18T23:29:23.339Z,14.52
2022-12-18T23:31:51.773Z,14.95
2022-12-18T23:34:20.155Z,14.10
2022-12-18T23:36:50.022Z,15.15
2022-12-18T23:39:28.662Z,15.88
2022-12-18T23:41:58.967Z,15.68
2022-12-18T23:44:27.932Z,15.60
2022-12-18T23:49:24.393Z,16.15
2022-12-18T23:51:55.235Z,15.85
2022-12-18T23:54:33.445Z,15.98
2022-12-18T23:57:02.496Z,14.95
